createdAt,value
2022-08-08T00:03:13.086Z,58.4
2022-08-08T00:10:17.419Z,58.3
2022-08-08T00:18:36.535Z,58.3
2022-08-08T00:24:46.368Z,58.2
2022-08-08T00:33:24.381Z,58.2
2022-08-08T00:44:17.573Z,58.1
2022-08-08T00:52:19.798Z,58
2022-08-08T00:59:10.997Z,58
2022-08-08T01:08:12.751Z,57.9
2022-08-08T01:15:37.434Z,57.9
2022-08-08T01:24:54.075Z,57.8
2022-08-08T01:39:43.950Z,57.7
2022-08-08T01:46:10.713Z,57.6
2022-08-08T17:16:14.906Z,63
2022-08-08T17:23:55.226Z,62.9
2022-08-08T17:31:57.429Z,62.9
2022-08-08T17:42:14.538Z,62.8
2022-08-08T17:48:47.946Z,62.8
2022-08-08T17:56:07.334Z,62.8
2022-08-08T18:02:44.505Z,62.7
2022-08-08T18:10:47.555Z,62.6
2022-08-08T18:16:54.375Z,62.6
2022-08-08T18:26:28.087Z,62.5
2022-08-08T18:32:47.841Z,62.5
2022-08-08T18:40:51.357Z,62.4
2022-08-08T18:48:59.430Z,62.4
2022-08-08T18:56:54.280Z,62.3
2022-08-08T19:04:38.953Z,62.3
2022-08-08T19:11:37.753Z,62.3
2022-08-08T19:19:29.917Z,62.1
2022-08-08T19:27:52.890Z,62.1
2022-08-08T19:35:44.145Z,62.1
2022-08-08T19:42:30.228Z,61.9
2022-08-08T19:49:59.557Z,61.9
2022-08-08T19:57:14.317Z,61.9
2022-08-08T20:04:49.898Z,61.8
2022-08-08T20:14:51.459Z,61.8
2022-08-08T20:22:13.521Z,61.7
2022-08-08T20:28:51.603Z,61.6
2022-08-08T20:37:37.372Z,61.6
2022-08-08T20:44:41.450Z,61.5
2022-08-08T20:51:54.261Z,61.4
2022-08-08T20:59:22.641Z,61.4
2022-08-08T21:06:15.838Z,61.4
2022-08-08T21:14:51.343Z,61.3
2022-08-08T21:21:57.593Z,61.3
2022-08-08T21:30:24.452Z,61.2
2022-08-08T21:38:33.520Z,61.1
2022-08-08T21:48:41.872Z,61.1
2022-08-08T22:00:25.809Z,61
2022-08-08T22:07:05.934Z,60.9
2022-08-08T22:14:26.494Z,60.9
2022-08-08T22:21:10.553Z,60.8
2022-08-08T22:31:09.269Z,60.8
2022-08-08T22:40:18.122Z,60.7
2022-08-08T22:46:45.069Z,60.6
2022-08-08T22:55:21.962Z,60.6
2022-08-08T23:03:34.550Z,60.5
2022-08-08T23:11:30.686Z,60.4
2022-08-08T23:20:36.309Z,60.4
2022-08-08T23:26:55.913Z,60.4
2022-08-08T23:33:19.578Z,60.3
2022-08-08T23:42:03.193Z,60.3
2022-08-08T23:52:24.431Z,60.2
